Home > Products > Valid Products > TAF

000
FTUS41 KBUF 011720
TAFROC
TAF
KROC 011720Z 0118/0218 27014G21KT P6SM SCT050
     FM012300 26012KT P6SM SCT050
     FM020300 23006KT P6SM SCT050
     FM021400 25012KT P6SM SCT250=



000
FTUS41 KBUF 011720
TAFIAG
TAF
KIAG 011720Z 0118/0218 29013G20KT P6SM SCT050
     FM012000 27014G22KT P6SM VCTS BKN040CB
     FM012300 25012KT P6SM BKN050
     FM020200 23007KT P6SM SCT050
     FM021400 23012KT P6SM SCT250
     FM021700 22016G22KT P6SM SCT250=



000
FTUS41 KBUF 011720
TAFART
TAF
KART 011720Z 0118/0218 25014G21KT P6SM SCT050
     FM012300 24012KT P6SM SCT050
     FM020100 23006KT P6SM SCT050
     FM020900 19004KT P6SM SCT050
     FM021400 22010KT P6SM SCT250
     FM021700 23014G20KT P6SM SCT250=



000
FTUS41 KBUF 011720
TAFJHW
TAF
KJHW 011720Z 0118/0218 28013KT P6SM SCT045
     FM020000 26006KT P6SM SCT045
     FM020400 21005KT P6SM SCT045
     FM021500 24011KT P6SM SCT250
      AMD LTD TO CLD VIS AND WIND=



000
FTUS41 KBUF 011720
TAFBUF
TAF
KBUF 011720Z 0118/0218 26014G22KT P6SM SCT050
     FM012100 25017G24KT P6SM VCTS BKN040CB
     FM012300 24013KT P6SM BKN050
     FM020200 22008KT P6SM SCT050
     FM021400 23013KT P6SM SCT250
     FM021700 23016G22KT P6SM SCT250=



000
FTUS41 KBUF 011720
TAFROC
TAF
KROC 011720Z 0118/0218 27014G21KT P6SM SCT050
     FM012300 26012KT P6SM SCT050
     FM020300 23006KT P6SM SCT050
     FM021400 25012KT P6SM SCT250=



000
FTUS41 KBUF 011720
TAFIAG
TAF
KIAG 011720Z 0118/0218 29013G20KT P6SM SCT050
     FM012000 27014G22KT P6SM VCTS BKN040CB
     FM012300 25012KT P6SM BKN050
     FM020200 23007KT P6SM SCT050
     FM021400 23012KT P6SM SCT250
     FM021700 22016G22KT P6SM SCT250=



000
FTUS41 KBUF 011720
TAFBUF
TAF
KBUF 011720Z 0118/0218 26014G22KT P6SM SCT050
     FM012100 25017G24KT P6SM VCTS BKN040CB
     FM012300 24013KT P6SM BKN050
     FM020200 22008KT P6SM SCT050
     FM021400 23013KT P6SM SCT250
     FM021700 23016G22KT P6SM SCT250=



000
FTUS41 KBUF 011720
TAFJHW
TAF
KJHW 011720Z 0118/0218 28013KT P6SM SCT045
     FM020000 26006KT P6SM SCT045
     FM020400 21005KT P6SM SCT045
     FM021500 24011KT P6SM SCT250
      AMD LTD TO CLD VIS AND WIND=



000
FTUS41 KBUF 011720
TAFART
TAF
KART 011720Z 0118/0218 25014G21KT P6SM SCT050
     FM012300 24012KT P6SM SCT050
     FM020100 23006KT P6SM SCT050
     FM020900 19004KT P6SM SCT050
     FM021400 22010KT P6SM SCT250
     FM021700 23014G20KT P6SM SCT250=



000
FTUS41 KBUF 011508 AAA
TAFBUF
TAF AMD
KBUF 011508Z 0115/0212 25012KT P6SM SCT040
     FM011800 25014G22KT P6SM BKN060
     FM012100 26014G22KT P6SM VCTS BKN050CB
     FM020000 24010KT P6SM BKN040
     FM020600 21006KT P6SM SCT060=



000
FTUS41 KBUF 011508 AAA
TAFIAG
TAF AMD
KIAG 011508Z 0115/0212 27013KT P6SM SCT040
     FM011800 27014G22KT P6SM BKN060
     FM012000 26014G22KT P6SM VCTS BKN050CB
     FM020000 26010KT P6SM BKN040
     FM020400 22005KT P6SM SCT060=



000
FTUS41 KBUF 011508 AAA
TAFART
TAF AMD
KART 011508Z 0115/0212 24010KT P6SM SCT040
     FM011800 24014G21KT P6SM SCT050
     FM012300 23010KT P6SM SCT200
     FM020400 VRB03KT P6SM SCT050=



000
FTUS41 KBUF 011508 AAA
TAFJHW
TAF AMD
KJHW 011508Z 0115/0212 28012G18KT P6SM SCT040
     FM012300 27010KT P6SM SCT200
     FM020300 21005KT P6SM SCT070
      AMD LTD TO CLD VIS AND WIND=



000
FTUS41 KBUF 011508 AAA
TAFROC
TAF AMD
KROC 011508Z 0115/0212 27013KT P6SM SCT040
     FM011800 27014G20KT P6SM SCT050
     FM020000 23006KT P6SM BKN050=



000
FTUS41 KBUF 011139
TAFJHW
TAF
KJHW 011139Z 0112/0212 30006KT P6SM SCT100
     FM011500 30010G18KT P6SM SCT100
     FM012000 27012G18KT P6SM SCT050 BKN250
     FM012300 27010KT P6SM SCT200
     FM020300 21005KT P6SM SCT070
      AMD LTD TO CLD VIS AND WIND=



000
FTUS41 KBUF 011139
TAFROC
TAF
KROC 011139Z 0112/0212 28008KT P6SM BKN080
     FM011500 28012G18KT P6SM SCT060
     FM011800 27014G20KT P6SM SCT060 BKN250
     FM012200 26012KT P6SM VCTS BKN060CB
     FM020000 23006KT P6SM BKN050=



000
FTUS41 KBUF 011139
TAFART
TAF
KART 011139Z 0112/0212 22006KT P6SM SCT025 SCT130
     FM011400 24012KT P6SM SCT100
     FM011700 24014G21KT P6SM SCT100
     FM012300 23010KT P6SM SCT200
     FM020400 VRB03KT P6SM SCT050=



000
FTUS41 KBUF 011139
TAFBUF
TAF
KBUF 011139Z 0112/0212 28006KT P6SM SCT100
     FM011500 27012G18KT P6SM SCT060
     FM011800 26014G22KT P6SM BKN060
     FM020000 24010KT P6SM BKN040
     FM020600 21006KT P6SM SCT060=



000
FTUS41 KBUF 011139
TAFIAG
TAF
KIAG 011139Z 0112/0212 28006KT P6SM SCT100
     FM011500 27012G18KT P6SM SCT100 BKN250
     FM011900 26014G20KT P6SM VCSH BKN060
     FM020000 25012KT P6SM BKN050
     FM020400 22005KT P6SM SCT060=



000
FTUS41 KBUF 011044 AAC
TAFART
TAF AMD
KART 011044Z 0111/0206 22005KT P6SM SCT025 BKN050
      TEMPO 0111/0113 BKN025
     FM011600 24013G20KT P6SM SCT070
     FM012300 23009KT P6SM SCT200
     FM020400 VRB03KT P6SM SCT050=



000
FTUS41 KBUF 010919 AAB
TAFART
TAF AMD
KART 010919Z 0109/0206 22005KT P6SM BKN070
     FM011600 24013G20KT P6SM SCT070
     FM012300 23009KT P6SM SCT200
     FM020400 VRB03KT P6SM SCT050=



000
FTUS41 KBUF 010918 AAA
TAFJHW
TAF AMD
KJHW 010918Z 0109/0206 26005KT P6SM SCT050
     FM011500 28008KT P6SM SCT060
     FM011800 28012G18KT P6SM SCT060 BKN250
     FM012300 27009KT P6SM SCT200
     FM020500 20004KT P6SM SCT050
      AMD LTD TO CLD VIS AND WIND=



000
FTUS41 KBUF 010917 AAA
TAFROC
TAF AMD
KROC 010917Z 0109/0206 24005KT P6SM BKN100
     FM011500 27012G18KT P6SM SCT070
     FM012100 26012G20KT P6SM VCSH BKN060
     FM020200 23006KT P6SM BKN050
     FM020400 22005KT P6SM SCT050=



000
FTUS41 KBUF 010917 AAA
TAFIAG
TAF AMD
KIAG 010917Z 0109/0206 VRB03KT P6SM SCT060 SCT140
     FM011200 27005KT P6SM SCT060
     FM011500 27010G18KT P6SM BKN070
     FM011800 26012G21KT P6SM VCSH BKN050
     FM012300 25012KT P6SM BKN060
     FM020300 23006KT P6SM SCT060=



000
FTUS41 KBUF 010917 AAA
TAFIAG
TAF AMD
KIAG 010917Z 0109/0206 VRB03KT P6SM SCT060 SCT140
     FM011200 27005KT P6SM SCT060
     FM011500 27010G18KT P6SM BKN070
     FM011800 26012G21KT P6SM VCSH BKN050
     FM012300 25012KT P6SM BKN060
     FM020300 23006KT P6SM SCT060=



000
FTUS41 KBUF 010916 AAB
TAFBUF
TAF AMD
KBUF 010916Z 0109/0206 28005KT P6SM BKN100
     FM011200 25008KT P6SM SCT050 SCT100
     FM011500 27010G18KT P6SM SCT070
     FM011800 26012G20KT P6SM BKN050
     FM012300 24012KT P6SM BKN050
     FM020400 22006KT P6SM SCT060=



000
FTUS41 KBUF 010732 AAA
TAFART
TAF AMD
KART 010732Z 0108/0206 22005KT P6SM VCSH SCT015 BKN050
     FM011000 23005KT P6SM BKN070
     FM011600 24013G20KT P6SM SCT070
     FM012300 23009KT P6SM SCT200
     FM020400 VRB03KT P6SM SCT050=



000
FTUS41 KBUF 010732 AAA
TAFART
TAF AMD
KART 010732Z 0108/0206 22005KT P6SM VCSH SCT015 BKN050
     FM011000 23005KT P6SM BKN070
     FM011600 24013G20KT P6SM SCT070
     FM012300 23009KT P6SM SCT200
     FM020400 VRB03KT P6SM SCT050=



000
FTUS41 KBUF 010541
TAFART
TAF
KART 010541Z 0106/0206 22006KT P6SM -TSRA BKN060CB
     FM010800 23005KT P6SM VCSH BKN050
     FM011000 23005KT P6SM BKN070
     FM011600 24013G20KT P6SM SCT070
     FM012300 23009KT P6SM SCT200
     FM020400 VRB03KT P6SM SCT050=



000
FTUS41 KBUF 010541
TAFIAG
TAF
KIAG 010541Z 0106/0206 26005KT P6SM SCT060 SCT140
     FM011000 27005KT P6SM SCT060
     FM011500 27010G18KT P6SM BKN070
     FM011800 26012G21KT P6SM VCSH BKN050
     FM012300 25012KT P6SM BKN060
     FM020300 23006KT P6SM SCT060=



000
FTUS41 KBUF 010541
TAFBUF
TAF
KBUF 010541Z 0106/0206 28005KT P6SM SCT050 SCT140
     FM011000 25004KT P6SM SCT050
     FM011500 27010G18KT P6SM SCT070
     FM011800 26012G20KT P6SM BKN050
     FM012300 24012KT P6SM BKN050
     FM020400 22006KT P6SM SCT060=



000
FTUS41 KBUF 010541
TAFJHW
TAF
KJHW 010541Z 0106/0206 24006KT P6SM SCT070
     FM010900 VRB03KT P6SM SCT050
     FM011500 28008KT P6SM SCT060
     FM011800 28012G18KT P6SM SCT060 BKN250
     FM012300 27009KT P6SM SCT200
     FM020500 20004KT P6SM SCT050
      AMD LTD TO CLD VIS AND WIND=



000
FTUS41 KBUF 010541
TAFROC
TAF
KROC 010541Z 0106/0206 26006KT P6SM BKN060
     FM010900 25006KT P6SM SCT060
     FM011500 27012G18KT P6SM SCT070
     FM012100 26012G20KT P6SM VCSH BKN060
     FM020200 23006KT P6SM BKN050
     FM020400 22005KT P6SM SCT050=



000
FTUS41 KBUF 010411 AAB
TAFROC
TAF AMD
KROC 010411Z 0104/0124 26010KT P6SM VCSH BKN050
      TEMPO 0104/0105 4SM -TSRA BKN025CB
     FM010600 23005KT P6SM SCT250
     FM011600 26014G20KT P6SM BKN050
     FM012100 26011KT P6SM VCSH BKN050=



000
FTUS41 KBUF 010309 AAA
TAFROC
TAF AMD
KROC 010309Z 0103/0124 26012KT P6SM VCSH BKN050
      TEMPO 0103/0104 VRB12G25KT 4SM -TSRA BKN025CB
     FM010700 23005KT P6SM SCT250
     FM011600 26014G20KT P6SM BKN050
     FM012100 26011KT P6SM VCSH BKN050=



000
FTUS41 KBUF 010309 AAB
TAFIAG
TAF AMD
KIAG 010309Z 0103/0124 32008KT P6SM VCSH BKN050
      TEMPO 0103/0104 VRB12G25KT 4SM -TSRA BKN025CB
     FM010600 26005KT P6SM SCT250
     FM011600 26013KT P6SM BKN050
     FM011800 26016G22KT P6SM VCSH BKN050
     FM012300 26013KT P6SM BKN050=



000
FTUS41 KBUF 010309 AAB
TAFBUF
TAF AMD
KBUF 010309Z 0103/0124 24012KT P6SM VCSH BKN050
     FM010600 24005KT P6SM SCT250
     FM011600 25013G19KT P6SM SCT250
     FM011900 25017G24KT P6SM BKN050
     FM012300 25014KT P6SM BKN050=



000
FTUS41 KBUF 010309 AAB
TAFART
TAF AMD
KART 010309Z 0103/0124 17005KT P6SM VCSH BKN050
     FM010800 21005KT P6SM SCT250
     FM011600 24014G20KT P6SM BKN050
     FM012300 23011KT P6SM BKN050=



000
FTUS41 KBUF 010309 AAB
TAFJHW
TAF AMD
KJHW 010309Z 0103/0124 21005KT P6SM VCSH BKN050
     FM010700 23005KT P6SM BKN050
     FM011600 27013KT P6SM BKN040
     FM011900 27014G20KT P6SM BKN050
     FM012200 27012KT P6SM BKN050
      AMD LTD TO CLD VIS AND WIND=



000
FTUS41 KBUF 010228 AAA
TAFIAG
TAF AMD
KIAG 010228Z 0102/0124 24008KT P6SM VCSH BKN050
      TEMPO 0102/0103 VRB15G30KT 3SM -TSRA BKN025CB
     FM010600 26005KT P6SM SCT250
     FM011600 26013KT P6SM BKN050
     FM011800 26016G22KT P6SM VCSH BKN050
     FM012300 26013KT P6SM BKN050=



000
FTUS41 KBUF 010228 AAA
TAFIAG
TAF AMD
KIAG 010228Z 0102/0124 24008KT P6SM VCSH BKN050
      TEMPO 0102/0103 VRB15G30KT 3SM -TSRA BKN025CB
     FM010600 26005KT P6SM SCT250
     FM011600 26013KT P6SM BKN050
     FM011800 26016G22KT P6SM VCSH BKN050
     FM012300 26013KT P6SM BKN050=



000
FTUS41 KBUF 010118 AAA
TAFJHW
TAF AMD
KJHW 010118Z 0101/0124 24011KT P6SM VCSH BKN050
      TEMPO 0101/0103 VRB10G20KT 5SM -SHRA BR BKN030
     FM010700 23005KT P6SM BKN050
     FM011600 27013KT P6SM BKN040
     FM011900 27014G20KT P6SM BKN050
     FM012200 27012KT P6SM BKN050
      AMD LTD TO CLD VIS AND WIND=



000
FTUS41 KBUF 010117 AAB
TAFBUF
TAF AMD
KBUF 010117Z 0101/0124 24008G16KT P6SM VCSH BKN050
     FM010600 24005KT P6SM SCT250
     FM011600 25013G19KT P6SM SCT250
     FM011900 25017G24KT P6SM BKN050
     FM012300 25014KT P6SM BKN050=



000
FTUS41 KBUF 010117 AAB
TAFBUF
TAF AMD
KBUF 010117Z 0101/0124 24008G16KT P6SM VCSH BKN050
     FM010600 24005KT P6SM SCT250
     FM011600 25013G19KT P6SM SCT250
     FM011900 25017G24KT P6SM BKN050
     FM012300 25014KT P6SM BKN050=



000
FTUS41 KBUF 010026 AAA
TAFART
TAF AMD
KART 010026Z 0100/0124 24008KT P6SM VCSH BKN050
      TEMPO 0100/0104 VRB15G30KT 2SM -TSRA BKN025CB
     FM010700 21005KT P6SM SCT250
     FM011600 24014G20KT P6SM BKN050
     FM012300 23011KT P6SM BKN050=



000
FTUS41 KBUF 010026 AAA
TAFART
TAF AMD
KART 010026Z 0100/0124 24008KT P6SM VCSH BKN050
      TEMPO 0100/0104 VRB15G30KT 2SM -TSRA BKN025CB
     FM010700 21005KT P6SM SCT250
     FM011600 24014G20KT P6SM BKN050
     FM012300 23011KT P6SM BKN050=



000
FTUS41 KBUF 312339
TAFART
TAF
KART 312339Z 0100/0124 24008KT P6SM VCSH BKN050
     FM010700 21005KT P6SM SCT250
     FM011600 24014G20KT P6SM BKN050
     FM012300 23011KT P6SM BKN050=



000
FTUS41 KBUF 312339
TAFROC
TAF
KROC 312339Z 0100/0124 26012KT P6SM VCSH BKN050
     FM010700 23005KT P6SM SCT250
     FM011600 26014G20KT P6SM BKN050
     FM012100 26011KT P6SM VCSH BKN050=



000
FTUS41 KBUF 312339
TAFBUF
TAF
KBUF 312339Z 0100/0124 24008KT P6SM VCSH BKN050
     FM010600 24005KT P6SM SCT250
     FM011600 25013G19KT P6SM SCT250
     FM011900 25017G24KT P6SM BKN050
     FM012300 25014KT P6SM BKN050=



000
FTUS41 KBUF 312339
TAFJHW
TAF
KJHW 312339Z 0100/0124 24011KT P6SM VCSH BKN050
     FM010700 23005KT P6SM BKN050
     FM011600 27013KT P6SM BKN040
     FM011900 27014G20KT P6SM BKN050
     FM012200 27012KT P6SM BKN050
      AMD LTD TO CLD VIS AND WIND=



000
FTUS41 KBUF 312339
TAFIAG
TAF
KIAG 312339Z 0100/0124 24008KT P6SM VCSH BKN050
     FM010600 26005KT P6SM SCT250
     FM011600 26013KT P6SM BKN050
     FM011800 26016G22KT P6SM VCSH BKN050
     FM012300 26013KT P6SM BKN050=



000
FTUS41 KBUF 312339
TAFROC
TAF
KROC 312339Z 0100/0124 26012KT P6SM VCSH BKN050
     FM010700 23005KT P6SM SCT250
     FM011600 26014G20KT P6SM BKN050
     FM012100 26011KT P6SM VCSH BKN050=



000
FTUS41 KBUF 312339
TAFBUF
TAF
KBUF 312339Z 0100/0124 24008KT P6SM VCSH BKN050
     FM010600 24005KT P6SM SCT250
     FM011600 25013G19KT P6SM SCT250
     FM011900 25017G24KT P6SM BKN050
     FM012300 25014KT P6SM BKN050=



000
FTUS41 KBUF 312339
TAFJHW
TAF
KJHW 312339Z 0100/0124 24011KT P6SM VCSH BKN050
     FM010700 23005KT P6SM BKN050
     FM011600 27013KT P6SM BKN040
     FM011900 27014G20KT P6SM BKN050
     FM012200 27012KT P6SM BKN050
      AMD LTD TO CLD VIS AND WIND=



000
FTUS41 KBUF 312339
TAFART
TAF
KART 312339Z 0100/0124 24008KT P6SM VCSH BKN050
     FM010700 21005KT P6SM SCT250
     FM011600 24014G20KT P6SM BKN050
     FM012300 23011KT P6SM BKN050=



000
FTUS41 KBUF 312339
TAFIAG
TAF
KIAG 312339Z 0100/0124 24008KT P6SM VCSH BKN050
     FM010600 26005KT P6SM SCT250
     FM011600 26013KT P6SM BKN050
     FM011800 26016G22KT P6SM VCSH BKN050
     FM012300 26013KT P6SM BKN050=



000
FTUS41 KBUF 312241 AAB
TAFBUF
TAF AMD
KBUF 312241Z 3123/0118 23014G22KT P6SM -SHRA BKN060
     FM312330 24014KT P6SM VCSH BKN080
     FM010200 24009KT P6SM BKN060
     FM010700 23005KT P6SM SCT060
     FM011300 24010KT P6SM SCT050
     FM011600 25014G20KT P6SM SCT050=



000
FTUS41 KBUF 312241 AAB
TAFBUF
TAF AMD
KBUF 312241Z 3123/0118 23014G22KT P6SM -SHRA BKN060
     FM312330 24014KT P6SM VCSH BKN080
     FM010200 24009KT P6SM BKN060
     FM010700 23005KT P6SM SCT060
     FM011300 24010KT P6SM SCT050
     FM011600 25014G20KT P6SM SCT050=



000
FTUS41 KBUF 312153 AAA
TAFIAG
TAF AMD
KIAG 312153Z 3122/0118 23015G24KT P6SM VCSH SCT060
     FM312300 24015KT P6SM VCSH BKN060
     FM010200 24008KT P6SM BKN050
     FM010600 26005KT P6SM SCT060
     FM011400 26010KT P6SM SCT050
     FM011600 26013G19KT P6SM BKN050=



000
FTUS41 KBUF 312153 AAA
TAFART
TAF AMD
KART 312153Z 3122/0118 23008KT P6SM SKC
     FM010000 21006KT P6SM BKN060
     FM010200 21006KT P6SM VCSH BKN040
     FM010800 22005KT P6SM SCT050
     FM011400 23011KT P6SM SCT050
     FM011600 24014G20KT P6SM SCT050=



000
FTUS41 KBUF 312153 AAA
TAFROC
TAF AMD
KROC 312153Z 3122/0118 26008KT P6SM BKN060
     FM010100 23008KT P6SM VCSH BKN050
     FM010800 23005KT P6SM SCT050
     FM011400 25011KT P6SM SCT050
     FM011700 26014G20KT P6SM BKN050=



000
FTUS41 KBUF 312153 AAA
TAFJHW
TAF AMD
KJHW 312153Z 3122/0118 24008KT P6SM SKC
     FM010200 23007KT P6SM VCSH BKN040
     FM010700 23005KT P6SM BKN060
     FM011100 24004KT P6SM SCT045
     FM011600 26011KT P6SM BKN045
      AMD LTD TO CLD VIS AND WIND=



000
FTUS41 KBUF 312153 AAA
TAFBUF
TAF AMD
KBUF 312153Z 3122/0118 23017G27KT P6SM VCSH SCT060
     FM312300 24014KT P6SM VCSH BKN080
     FM010200 24009KT P6SM BKN060
     FM010700 23005KT P6SM SCT060
     FM011300 24010KT P6SM SCT050
     FM011600 25014G20KT P6SM SCT050=



000
FTUS41 KBUF 311730
TAFBUF
TAF
KBUF 311730Z 3118/0118 23017G27KT P6SM SCT060
     FM312300 24014KT P6SM BKN080
     FM010200 24009KT P6SM VCSH BKN060
     FM010700 23005KT P6SM SCT060
     FM011300 24010KT P6SM SCT050
     FM011600 25014G20KT P6SM SCT050=



000
FTUS41 KBUF 311730
TAFIAG
TAF
KIAG 311730Z 3118/0118 24015G24KT P6SM SCT050
     FM312100 23015G22KT P6SM BKN060
     FM312300 24015KT P6SM VCSH BKN060
     FM010200 24008KT P6SM VCSH BKN050
     FM010600 26005KT P6SM SCT060
     FM011400 26010KT P6SM SCT050
     FM011600 26013G19KT P6SM BKN050=



000
FTUS41 KBUF 311730
TAFROC
TAF
KROC 311730Z 3118/0118 23013KT P6SM SCT060
     FM312000 24014G21KT P6SM SCT060
     FM010000 24010KT P6SM BKN060
     FM010300 23008KT P6SM VCSH BKN050
     FM010800 23005KT P6SM SCT050
     FM011400 25011KT P6SM SCT050
     FM011700 26014G20KT P6SM BKN050=



000
FTUS41 KBUF 311730
TAFJHW
TAF
KJHW 311730Z 3118/0118 26013G20KT P6SM BKN045
     FM312300 24008KT P6SM SCT060
     FM010300 23007KT P6SM VCSH BKN040
     FM010700 23005KT P6SM BKN060
     FM011100 24004KT P6SM SCT045
     FM011600 26011KT P6SM BKN045
      AMD LTD TO CLD VIS AND WIND=



000
FTUS41 KBUF 311730
TAFART
TAF
KART 311730Z 3118/0118 23013KT P6SM SKC
     FM010000 21006KT P6SM BKN060
     FM010400 21006KT P6SM VCSH BKN040
     FM010800 22005KT P6SM SCT050
     FM011400 23011KT P6SM SCT050
     FM011600 24014G20KT P6SM SCT050=



000
FTUS41 KBUF 311502 AAA
TAFART
TAF AMD
KART 311502Z 3115/0112 25012KT P6SM SKC
     FM312100 23009KT P6SM SCT070
     FM312300 22007KT P6SM BKN060
     FM010200 21005KT P6SM VCSH BKN060
     FM010900 22005KT P6SM BKN070=



000
FTUS41 KBUF 311502 AAA
TAFART
TAF AMD
KART 311502Z 3115/0112 25012KT P6SM SKC
     FM312100 23009KT P6SM SCT070
     FM312300 22007KT P6SM BKN060
     FM010200 21005KT P6SM VCSH BKN060
     FM010900 22005KT P6SM BKN070=



000
FTUS41 KBUF 311502 AAA
TAFJHW
TAF AMD
KJHW 311502Z 3115/0112 25010KT P6SM SCT040
     FM311800 26012KT P6SM SCT080
     FM010200 23007KT P6SM VCSH BKN060
     FM011000 24004KT P6SM SCT070
      AMD LTD TO CLD VIS AND WIND=



000
FTUS41 KBUF 311502 AAA
TAFIAG
TAF AMD
KIAG 311502Z 3115/0112 21012KT P6SM SCT070
     FM311800 23015G24KT P6SM SCT060
     FM312300 24013G20KT P6SM VCSH BKN060
     FM010100 24011KT P6SM VCSH BKN060
      TEMPO 0102/0104 6SM -SHRA
     FM010600 25005KT P6SM BKN070=



000
FTUS41 KBUF 311502 AAA
TAFBUF
TAF AMD
KBUF 311502Z 3115/0112 22012KT P6SM SCT070
     FM311800 23016G25KT P6SM SCT060
     FM010100 24011KT P6SM VCSH BKN060
      TEMPO 0103/0105 6SM -SHRA
     FM010800 24005KT P6SM BKN070=



000
FTUS41 KBUF 311502 AAA
TAFROC
TAF AMD
KROC 311502Z 3115/0112 26010KT P6SM SKC
     FM312000 26013KT P6SM SCT070
     FM010000 24008KT P6SM BKN070
     FM010200 23007KT P6SM VCSH BKN060
      TEMPO 0103/0105 6SM -SHRA
     FM010900 24007KT P6SM BKN070=



000
FTUS41 KBUF 311502 AAA
TAFROC
TAF AMD
KROC 311502Z 3115/0112 26010KT P6SM SKC
     FM312000 26013KT P6SM SCT070
     FM010000 24008KT P6SM BKN070
     FM010200 23007KT P6SM VCSH BKN060
      TEMPO 0103/0105 6SM -SHRA
     FM010900 24007KT P6SM BKN070=



000
FTUS41 KBUF 311502 AAA
TAFJHW
TAF AMD
KJHW 311502Z 3115/0112 25010KT P6SM SCT040
     FM311800 26012KT P6SM SCT080
     FM010200 23007KT P6SM VCSH BKN060
     FM011000 24004KT P6SM SCT070
      AMD LTD TO CLD VIS AND WIND=



000
FTUS41 KBUF 311502 AAA
TAFIAG
TAF AMD
KIAG 311502Z 3115/0112 21012KT P6SM SCT070
     FM311800 23015G24KT P6SM SCT060
     FM312300 24013G20KT P6SM VCSH BKN060
     FM010100 24011KT P6SM VCSH BKN060
      TEMPO 0102/0104 6SM -SHRA
     FM010600 25005KT P6SM BKN070=



000
FTUS41 KBUF 311502 AAA
TAFBUF
TAF AMD
KBUF 311502Z 3115/0112 22012KT P6SM SCT070
     FM311800 23016G25KT P6SM SCT060
     FM010100 24011KT P6SM VCSH BKN060
      TEMPO 0103/0105 6SM -SHRA
     FM010800 24005KT P6SM BKN070=



000
FTUS41 KBUF 311120
TAFROC
TAF
KROC 311120Z 3112/0112 26005KT P6SM SKC
     FM311600 26010KT P6SM FEW070
     FM010000 24008KT P6SM BKN070
     FM010200 23007KT P6SM VCSH BKN060
      TEMPO 0103/0105 6SM -SHRA
     FM010900 24007KT P6SM BKN070=



000
FTUS41 KBUF 311120
TAFART
TAF
KART 311120Z 3112/0112 26005KT P6SM SKC
     FM311500 25010KT P6SM FEW250
     FM312100 23009KT P6SM SCT070
     FM312300 22007KT P6SM BKN060
     FM010200 21005KT P6SM VCSH BKN060
     FM010900 22005KT P6SM BKN070=



000
FTUS41 KBUF 311120
TAFBUF
TAF
KBUF 311120Z 3112/0112 VRB04KT P6SM SKC
     FM311400 23008KT P6SM FEW070
     FM311800 24016G25KT P6SM SCT060
     FM010100 24011KT P6SM VCSH BKN060
      TEMPO 0103/0105 6SM -SHRA
     FM010800 24005KT P6SM BKN070=



000
FTUS41 KBUF 311120
TAFJHW
TAF
KJHW 311120Z 3112/0112 VRB03KT P6SM SKC
     FM311500 24006KT P6SM FEW250
     FM311800 26012KT P6SM SCT080
     FM010200 23007KT P6SM VCSH BKN060
     FM011000 24004KT P6SM SCT070
      AMD LTD TO CLD VIS AND WIND=



000
FTUS41 KBUF 311120
TAFIAG
TAF
KIAG 311120Z 3112/0112 VRB04KT P6SM SKC
     FM311400 23007KT P6SM FEW070
     FM311800 23015G24KT P6SM SCT060
     FM312300 24013G20KT P6SM VCSH BKN060
     FM010100 24011KT P6SM VCSH BKN060
      TEMPO 0102/0104 6SM -SHRA
     FM010600 25005KT P6SM BKN070=



000
FTUS41 KBUF 310902 AAA
TAFJHW
TAF AMD
KJHW 310902Z 3109/0106 VRB04KT P6SM SKC
     FM311200 VRB03KT P6SM FEW250
     FM311700 26012G18KT P6SM SCT070
     FM312300 25008KT P6SM SCT070
     FM010300 22005KT P6SM VCSH BKN080
      AMD LTD TO CLD VIS AND WIND=



000
FTUS41 KBUF 310902 AAA
TAFART
TAF AMD
KART 310902Z 3109/0106 27007KT P6SM SKC
     FM311200 27011KT P6SM FEW250
     FM311700 24014G20KT P6SM SCT250
     FM312000 23014G20KT P6SM SCT080
     FM312300 VRB05KT P6SM VCSH BKN060=



000
FTUS41 KBUF 310902 AAA
TAFBUF
TAF AMD
KBUF 310902Z 3109/0106 28005KT P6SM SKC
     FM311300 23007KT P6SM FEW250
     FM311800 23014G21KT P6SM SCT060
     FM312300 24012KT P6SM VCSH BKN070
     FM010300 23006KT 6SM -SHRA BKN060=



000
FTUS41 KBUF 310902 AAA
TAFIAG
TAF AMD
KIAG 310902Z 3109/0106 27004KT P6SM SKC
     FM311300 23005KT P6SM FEW250
     FM311800 23016G22KT P6SM SCT060
     FM312200 23013KT P6SM VCSH BKN060
     FM010200 24007KT 6SM -SHRA BKN060=



000
FTUS41 KBUF 310902 AAA
TAFROC
TAF AMD
KROC 310902Z 3109/0106 27005KT P6SM SKC
     FM311300 27009KT P6SM FEW250
     FM311900 25011G18KT P6SM SCT070
     FM010000 24008KT P6SM BKN070
     FM010200 23007KT P6SM VCSH BKN070
     FM010300 23007KT 6SM -SHRA BKN060=



000
FTUS41 KBUF 310538
TAFART
TAF
KART 310538Z 3106/0106 18005KT P6SM SCT080
     FM310900 23007KT P6SM FEW250
     FM311200 27011KT P6SM FEW250
     FM311700 24014G20KT P6SM SCT250
     FM312000 23014G20KT P6SM SCT080
     FM312300 VRB05KT P6SM VCSH BKN060=



000
FTUS41 KBUF 310538
TAFIAG
TAF
KIAG 310538Z 3106/0106 25008KT P6SM FEW080
     FM310900 24004KT P6SM SKC
     FM311300 23005KT P6SM FEW250
     FM311800 23016G22KT P6SM SCT060
     FM312200 23013KT P6SM VCSH BKN060
     FM010200 24007KT 6SM -SHRA BKN060=



000
FTUS41 KBUF 310538
TAFBUF
TAF
KBUF 310538Z 3106/0106 24007KT P6SM FEW080
     FM311000 VRB04KT P6SM SKC
     FM311300 23007KT P6SM FEW250
     FM311800 23014G21KT P6SM SCT060
     FM312300 24012KT P6SM VCSH BKN070
     FM010300 23006KT 6SM -SHRA BKN060=



000
FTUS41 KBUF 310538
TAFJHW
TAF
KJHW 310538Z 3106/0106 24007KT P6SM FEW080
     FM310800 VRB04KT 3SM BR SCT003
     FM311200 VRB03KT P6SM FEW250
     FM311700 26012G18KT P6SM SCT070
     FM312300 25008KT P6SM SCT070
     FM010300 22005KT P6SM VCSH BKN080
      AMD LTD TO CLD VIS AND WIND=



000
FTUS41 KBUF 310538
TAFROC
TAF
KROC 310538Z 3106/0106 22007KT P6SM FEW080
     FM311000 25007KT P6SM SKC
     FM311300 27009KT P6SM FEW250
     FM311900 25011G18KT P6SM SCT070
     FM010000 24008KT P6SM BKN070
     FM010200 23007KT P6SM VCSH BKN070
     FM010300 23007KT 6SM -SHRA BKN060=



000
FTUS41 KBUF 310300 AAA
TAFROC
TAF AMD
KROC 310300Z 3103/3124 25006KT P6SM SKC
     FM311600 26012G18KT P6SM SCT040=



000
FTUS41 KBUF 310300 AAB
TAFBUF
TAF AMD
KBUF 310300Z 3103/3124 24010KT P6SM SKC
     FM310500 26006KT P6SM SKC
     FM311600 24016G24KT P6SM SCT040=



000
FTUS41 KBUF 310300 AAB
TAFJHW
TAF AMD
KJHW 310300Z 3103/3124 25005KT P6SM SKC
     FM310800 VRB03KT 3SM BR SCT008
     FM311200 24006KT P6SM SKC
     FM311700 27012G18KT P6SM SCT040
      AMD LTD TO CLD VIS AND WIND=



000
FTUS41 KBUF 310300 AAB
TAFIAG
TAF AMD
KIAG 310300Z 3103/3124 25006KT P6SM SKC
     FM311600 24016G24KT P6SM SCT040
     FM312100 24014KT P6SM VCSH BKN040=



000
FTUS41 KBUF 310300 AAA
TAFART
TAF AMD
KART 310300Z 3103/3124 23005KT P6SM SKC
     FM311600 24014G22KT P6SM SCT040=



000
FTUS41 KBUF 310138 AAA
TAFJHW
TAF AMD
KJHW 310138Z 3102/3124 26006KT P6SM SKC
     FM310800 VRB03KT 3SM BR SCT008
     FM311200 24006KT P6SM SKC
     FM311700 27012G18KT P6SM SCT040
      AMD LTD TO CLD VIS AND WIND=



000
FTUS41 KBUF 310137 AAA
TAFIAG
TAF AMD
KIAG 310137Z 3102/3124 26007KT P6SM SKC
     FM311600 24016G24KT P6SM SCT040
     FM312100 24014KT P6SM VCSH BKN040=



000
FTUS41 KBUF 302323
TAFROC
TAF
KROC 302323Z 3100/3124 25012KT P6SM SKC
     FM310200 25006KT P6SM SKC
     FM311600 26012G18KT P6SM SCT040=



000
FTUS41 KBUF 302323
TAFJHW
TAF
KJHW 302323Z 3100/3124 27012KT P6SM SKC
     FM310200 26006KT P6SM SKC
     FM310800 VRB03KT 3SM BR SCT008
     FM311200 24006KT P6SM SKC
     FM311700 27012G18KT P6SM SCT040
      AMD LTD TO CLD VIS AND WIND=



000
FTUS41 KBUF 302323
TAFIAG
TAF
KIAG 302323Z 3100/3124 27012KT P6SM SKC
     FM310300 26007KT P6SM SKC
     FM311600 24016G24KT P6SM SCT040
     FM312100 24014KT P6SM VCSH BKN040=



000
FTUS41 KBUF 302323
TAFROC
TAF
KROC 302323Z 3100/3124 25012KT P6SM SKC
     FM310200 25006KT P6SM SKC
     FM311600 26012G18KT P6SM SCT040=



000
FTUS41 KBUF 302323
TAFART
TAF
KART 302323Z 3100/3124 23010KT P6SM SKC
     FM310200 23005KT P6SM SKC
     FM311600 24014G22KT P6SM SCT040=



000
FTUS41 KBUF 302323
TAFBUF
TAF
KBUF 302323Z 3100/3124 25016KT P6SM SKC
     FM310200 26010KT P6SM SKC
     FM310400 27005KT P6SM SKC
     FM311600 24016G24KT P6SM SCT040=



000
FTUS41 KBUF 302323
TAFBUF
TAF
KBUF 302323Z 3100/3124 25016KT P6SM SKC
     FM310200 26010KT P6SM SKC
     FM310400 27005KT P6SM SKC
     FM311600 24016G24KT P6SM SCT040=



000
FTUS41 KBUF 302323
TAFJHW
TAF
KJHW 302323Z 3100/3124 27012KT P6SM SKC
     FM310200 26006KT P6SM SKC
     FM310800 VRB03KT 3SM BR SCT008
     FM311200 24006KT P6SM SKC
     FM311700 27012G18KT P6SM SCT040
      AMD LTD TO CLD VIS AND WIND=



000
FTUS41 KBUF 302323
TAFART
TAF
KART 302323Z 3100/3124 23010KT P6SM SKC
     FM310200 23005KT P6SM SKC
     FM311600 24014G22KT P6SM SCT040=



000
FTUS41 KBUF 302323
TAFIAG
TAF
KIAG 302323Z 3100/3124 27012KT P6SM SKC
     FM310300 26007KT P6SM SKC
     FM311600 24016G24KT P6SM SCT040
     FM312100 24014KT P6SM VCSH BKN040=



000
FTUS41 KBUF 302105 AAA
TAFBUF
TAF AMD
KBUF 302105Z 3021/3118 24018G26KT P6SM SKC
     FM310000 25012KT P6SM SKC
     FM310300 26007KT P6SM SKC
     FM311500 25011KT P6SM SKC
     FM311700 24015G21KT P6SM FEW250=



000
FTUS41 KBUF 302105 AAA
TAFART
TAF AMD
KART 302105Z 3021/3118 24014G22KT P6SM SKC
     FM310000 23010KT P6SM SKC
     FM311700 24013G20KT P6SM FEW250=



000
FTUS41 KBUF 302105 AAA
TAFROC
TAF AMD
KROC 302105Z 3021/3118 26014KT P6SM SCT050
     FM302300 25013KT P6SM SKC
     FM310200 25009KT P6SM SKC
     FM311700 26011G17KT P6SM FEW250=



000
FTUS41 KBUF 302105 AAA
TAFART
TAF AMD
KART 302105Z 3021/3118 24014G22KT P6SM SKC
     FM310000 23010KT P6SM SKC
     FM311700 24013G20KT P6SM FEW250=



000
FTUS41 KBUF 302105 AAA
TAFROC
TAF AMD
KROC 302105Z 3021/3118 26014KT P6SM SCT050
     FM302300 25013KT P6SM SKC
     FM310200 25009KT P6SM SKC
     FM311700 26011G17KT P6SM FEW250=



000
FTUS41 KBUF 302105 AAA
TAFIAG
TAF AMD
KIAG 302105Z 3021/3118 24016G24KT P6SM SCT060
     FM302300 27010KT P6SM SKC
     FM310300 26007KT P6SM SKC
     FM311600 24012KT P6SM FEW250=



000
FTUS41 KBUF 302105 AAA
TAFBUF
TAF AMD
KBUF 302105Z 3021/3118 24018G26KT P6SM SKC
     FM310000 25012KT P6SM SKC
     FM310300 26007KT P6SM SKC
     FM311500 25011KT P6SM SKC
     FM311700 24015G21KT P6SM FEW250=



000
FTUS41 KBUF 302105 AAA
TAFIAG
TAF AMD
KIAG 302105Z 3021/3118 24016G24KT P6SM SCT060
     FM302300 27010KT P6SM SKC
     FM310300 26007KT P6SM SKC
     FM311600 24012KT P6SM FEW250=



000
FTUS41 KBUF 302105 AAA
TAFJHW
TAF AMD
KJHW 302105Z 3021/3118 27014G22KT P6SM FEW050
     FM302200 27012KT P6SM SKC
     FM310200 26006KT P6SM SKC
     FM310800 27005KT 3SM BR SCT012
     FM311300 22004KT P6SM SKC
     FM311700 26010G16KT P6SM SCT150
      AMD LTD TO CLD VIS AND WIND=



000
FTUS41 KBUF 301720
TAFBUF
TAF
KBUF 301720Z 3018/3118 24015G24KT P6SM FEW040 SCT250
     FM310100 25011KT P6SM FEW250
     FM310400 26007KT P6SM FEW250
     FM311500 25011KT P6SM SKC
     FM311700 24015G21KT P6SM FEW250=



000
FTUS41 KBUF 301720
TAFART
TAF
KART 301720Z 3018/3118 24013G21KT P6SM SKC
     FM302300 23010KT P6SM FEW250
     FM311700 24013G20KT P6SM FEW250=



000
FTUS41 KBUF 301720
TAFIAG
TAF
KIAG 301720Z 3018/3118 28012G22KT P6SM SCT050 BKN250
     FM310000 25011KT P6SM FEW250
     FM310300 26007KT P6SM SKC
     FM311600 24012KT P6SM FEW250=



000
FTUS41 KBUF 301720
TAFROC
TAF
KROC 301720Z 3018/3118 28013G21KT P6SM SCT045 SCT250
     FM302300 25013KT P6SM FEW250
     FM310200 25009KT P6SM FEW250
     FM311700 26011G17KT P6SM FEW250=



000
FTUS41 KBUF 301720
TAFBUF
TAF
KBUF 301720Z 3018/3118 24015G24KT P6SM FEW040 SCT250
     FM310100 25011KT P6SM FEW250
     FM310400 26007KT P6SM FEW250
     FM311500 25011KT P6SM SKC
     FM311700 24015G21KT P6SM FEW250=



000
FTUS41 KBUF 301720
TAFJHW
TAF
KJHW 301720Z 3018/3118 27012G21KT P6SM SCT050 SCT250
     FM302200 27013KT P6SM SKC
     FM310800 27005KT 3SM BR SCT012
     FM311300 22004KT P6SM SKC
     FM311700 26010G16KT P6SM SCT150
      AMD LTD TO CLD VIS AND WIND=



000
FTUS41 KBUF 301504 AAA
TAFJHW
TAF AMD
KJHW 301504Z 3015/3112 26008KT P6SM SCT250
     FM301600 27014G21KT P6SM FEW250
     FM302300 26011KT P6SM FEW250
     FM310300 26007KT P6SM FEW250
     FM310900 VRB03KT P6SM FEW060
      AMD LTD TO CLD VIS AND WIND=



000
FTUS41 KBUF 301504 AAA
TAFIAG
TAF AMD
KIAG 301504Z 3015/3112 26012G20KT P6SM FEW250
     FM301800 24017G26KT P6SM SCT060
     FM302300 25013G20KT P6SM FEW060
     FM310100 26010KT P6SM FEW250
     FM310500 27007KT P6SM FEW250=



000
FTUS41 KBUF 301504 AAB
TAFBUF
TAF AMD
KBUF 301504Z 3015/3112 23015G22KT P6SM FEW040 FEW250
     FM301800 24018G27KT P6SM SCT060
     FM302300 24014G20KT P6SM SCT060
     FM310100 25010KT P6SM FEW060
     FM310500 26006KT P6SM FEW250=



000
FTUS41 KBUF 301504 AAB
TAFART
TAF AMD
KART 301504Z 3015/3112 24012G18KT P6SM SCT040
     FM301700 24014G21KT P6SM SCT060
     FM302200 24012KT P6SM FEW060
     FM310300 24007KT P6SM FEW250=



000
FTUS41 KBUF 301504 AAA
TAFROC
TAF AMD
KROC 301504Z 3015/3112 25011KT P6SM SCT060
     FM301600 26014G21KT P6SM SCT060
     FM310000 25011KT P6SM SCT060
     FM310300 26008KT P6SM FEW250=



000
FTUS41 KBUF 301306 AAA
TAFART
TAF AMD
KART 301306Z 3013/3112 23010KT 2SM +SHRA BKN009
     FM301400 23012G18KT P6SM SCT009 BKN040
     FM301700 24014G21KT P6SM SCT060
     FM302200 24012KT P6SM FEW060
     FM310300 24007KT P6SM FEW250=



000
FTUS41 KBUF 301121
TAFBUF
TAF
KBUF 301121Z 3012/3112 24008KT P6SM SCT250
     FM301500 25015G22KT P6SM FEW250
     FM301800 24018G27KT P6SM SCT060
     FM302300 24014G20KT P6SM SCT060
     FM310100 25010KT P6SM FEW060
     FM310500 26006KT P6SM FEW250=



000
FTUS41 KBUF 301121
TAFJHW
TAF
KJHW 301121Z 3012/3112 26008KT P6SM SCT250
     FM301600 27014G21KT P6SM FEW250
     FM302300 26011KT P6SM FEW250
     FM310300 26007KT P6SM FEW250
     FM310900 VRB03KT P6SM FEW060
      AMD LTD TO CLD VIS AND WIND=



000
FTUS41 KBUF 301121
TAFIAG
TAF
KIAG 301121Z 3012/3112 26009KT P6SM SCT250
     FM301500 25014G22KT P6SM FEW250
     FM301800 24017G26KT P6SM SCT060
     FM302300 25013G20KT P6SM FEW060
     FM310100 26010KT P6SM FEW250
     FM310500 27007KT P6SM FEW250=



000
FTUS41 KBUF 301121
TAFROC
TAF
KROC 301121Z 3012/3112 24012KT P6SM BKN060
     FM301400 25011KT P6SM SCT060
     FM301600 26014G21KT P6SM SCT060
     FM310000 25011KT P6SM SCT060
     FM310300 26008KT P6SM FEW250=



000
FTUS41 KBUF 301121
TAFART
TAF
KART 301121Z 3012/3112 21006KT 6SM -SHRA VCTS SCT025 OVC050CB
      TEMPO 3012/3014 2SM +SHRA BKN025
     FM301400 23011KT P6SM BKN050
     FM301700 24014G21KT P6SM SCT060
     FM302200 24012KT P6SM FEW060
     FM310300 24007KT P6SM FEW250=



000
FTUS41 KBUF 301121
TAFROC
TAF
KROC 301121Z 3012/3112 24012KT P6SM BKN060
     FM301400 25011KT P6SM SCT060
     FM301600 26014G21KT P6SM SCT060
     FM310000 25011KT P6SM SCT060
     FM310300 26008KT P6SM FEW250=



000
FTUS41 KBUF 301121
TAFART
TAF
KART 301121Z 3012/3112 21006KT 6SM -SHRA VCTS SCT025 OVC050CB
      TEMPO 3012/3014 2SM +SHRA BKN025
     FM301400 23011KT P6SM BKN050
     FM301700 24014G21KT P6SM SCT060
     FM302200 24012KT P6SM FEW060
     FM310300 24007KT P6SM FEW250=



000
FTUS41 KBUF 301121
TAFJHW
TAF
KJHW 301121Z 3012/3112 26008KT P6SM SCT250
     FM301600 27014G21KT P6SM FEW250
     FM302300 26011KT P6SM FEW250
     FM310300 26007KT P6SM FEW250
     FM310900 VRB03KT P6SM FEW060
      AMD LTD TO CLD VIS AND WIND=



000
FTUS41 KBUF 301121
TAFIAG
TAF
KIAG 301121Z 3012/3112 26009KT P6SM SCT250
     FM301500 25014G22KT P6SM FEW250
     FM301800 24017G26KT P6SM SCT060
     FM302300 25013G20KT P6SM FEW060
     FM310100 26010KT P6SM FEW250
     FM310500 27007KT P6SM FEW250=



000
FTUS41 KBUF 301121
TAFBUF
TAF
KBUF 301121Z 3012/3112 24008KT P6SM SCT250
     FM301500 25015G22KT P6SM FEW250
     FM301800 24018G27KT P6SM SCT060
     FM302300 24014G20KT P6SM SCT060
     FM310100 25010KT P6SM FEW060
     FM310500 26006KT P6SM FEW250=



000
FTUS41 KBUF 301019 AAB
TAFROC
TAF AMD
KROC 301019Z 3010/3106 24007KT P6SM -SHRA SCT025 BKN060
      TEMPO 3010/3012 3SM -SHRA BKN025
     FM301200 25009KT P6SM BKN050
     FM301600 26013KT P6SM SCT060
     FM301900 26015G21KT P6SM SCT060
     FM310000 24011KT P6SM SCT060
     FM310300 25007KT P6SM FEW250=



000
FTUS41 KBUF 300905 AAC
TAFBUF
TAF AMD
KBUF 300905Z 3009/3106 20008KT P6SM VCSH BKN050
      TEMPO 3009/3010 3SM -SHRA
     FM301100 25008KT P6SM BKN250
     FM301500 25015KT P6SM FEW060
     FM301900 24019G25KT P6SM FEW060
     FM310000 24012KT P6SM FEW060
     FM310200 26008KT P6SM FEW250=



000
FTUS41 KBUF 300905 AAB
TAFJHW
TAF AMD
KJHW 300905Z 3009/3106 27010KT P6SM VCSH SCT015 BKN035
     FM301100 26005KT P6SM BKN250
     FM301500 28012KT P6SM FEW060
     FM301900 28015KT P6SM FEW250
     FM302300 26010KT P6SM FEW250
     FM310300 25005KT P6SM FEW250
      AMD LTD TO CLD VIS AND WIND=



000
FTUS41 KBUF 300905 AAA
TAFIAG
TAF AMD
KIAG 300905Z 3009/3106 26008KT P6SM BKN050
     FM301100 25008KT P6SM BKN250
     FM301500 26012KT P6SM SCT060
     FM301800 25017G23KT P6SM SCT060
     FM310000 26010KT P6SM FEW250
     FM310300 25006KT P6SM FEW250=



000
FTUS41 KBUF 300905 AAA
TAFART
TAF AMD
KART 300905Z 3009/3106 19006KT 6SM HZ VCSH BKN070
     FM301100 21007KT 6SM -SHRA SCT025 BKN045
     FM301500 24012KT P6SM BKN050
     FM301700 24015G24KT P6SM FEW060
     FM302300 23011KT P6SM FEW060
     FM310300 22005KT P6SM FEW070=



000
FTUS41 KBUF 300905 AAA
TAFROC
TAF AMD
KROC 300905Z 3009/3106 24006KT P6SM VCSH BKN060
      TEMPO 3009/3012 6SM -SHRA
     FM301200 25009KT P6SM BKN050
     FM301600 26013KT P6SM SCT060
     FM301900 26015G21KT P6SM SCT060
     FM310000 24011KT P6SM SCT060
     FM310300 25007KT P6SM FEW250=



000
FTUS41 KBUF 300712 AAB
TAFBUF
TAF AMD
KBUF 300712Z 3007/3106 20008KT P6SM VCSH BKN050
      TEMPO 3008/3010 3SM SHRA BKN025
     FM301100 25008KT P6SM SCT250
     FM301500 25015KT P6SM FEW060
     FM301900 24019G25KT P6SM FEW060
     FM310000 24012KT P6SM FEW060
     FM310200 26008KT P6SM FEW250=



000
FTUS41 KBUF 300710 AAA
TAFJHW
TAF AMD
KJHW 300710Z 3007/3106 21005KT P6SM VCTS BKN035CB
      TEMPO 3008/3010 1SM +TSRA BKN015CB
     FM301100 26005KT P6SM SCT250
     FM301500 28012KT P6SM FEW060
     FM301900 28015KT P6SM FEW250
     FM302300 26010KT P6SM FEW250
     FM310300 25005KT P6SM FEW250
      AMD LTD TO CLD VIS AND WIND=



000
FTUS41 KBUF 300539
TAFIAG
TAF
KIAG 300539Z 3006/3106 21008KT P6SM VCSH BKN050
     FM301100 25008KT P6SM SCT250
     FM301500 26012KT P6SM SCT060
     FM301800 25017G23KT P6SM SCT060
     FM310000 26010KT P6SM FEW250
     FM310300 25006KT P6SM FEW250=



000
FTUS41 KBUF 300539
TAFART
TAF
KART 300539Z 3006/3106 17005KT P6SM FEW250
     FM300900 19006KT P6SM FEW060 SCT250
     FM301100 21007KT 6SM -SHRA SCT025 BKN045
     FM301500 24012KT P6SM BKN050
     FM301700 24015G24KT P6SM FEW060
     FM302300 23011KT P6SM FEW060
     FM310300 22005KT P6SM FEW070=



000
FTUS41 KBUF 300539
TAFJHW
TAF
KJHW 300539Z 3006/3106 21005KT P6SM VCSH BKN045
     FM301100 26005KT P6SM SCT250
     FM301500 28012KT P6SM FEW060
     FM301900 28015KT P6SM FEW250
     FM302300 26010KT P6SM FEW250
     FM310300 25005KT P6SM FEW250
      AMD LTD TO CLD VIS AND WIND=



000
FTUS41 KBUF 300539
TAFBUF
TAF
KBUF 300539Z 3006/3106 20008KT P6SM VCSH OVC050
     FM301100 25008KT P6SM SCT250
     FM301500 25015KT P6SM FEW060
     FM301900 24019G25KT P6SM FEW060
     FM310000 24012KT P6SM FEW060
     FM310200 26008KT P6SM FEW250=



000
FTUS41 KBUF 300539
TAFROC
TAF
KROC 300539Z 3006/3106 22006KT P6SM BKN150
     FM300700 22006KT P6SM VCSH BKN060
      TEMPO 3009/3012 6SM -SHRA
     FM301200 25009KT P6SM BKN050
     FM301600 26013KT P6SM SCT060
     FM301900 26015G21KT P6SM SCT060
     FM310000 24011KT P6SM SCT060
     FM310300 25007KT P6SM FEW250=



000
FTUS41 KBUF 300303 AAA
TAFROC
TAF AMD
KROC 300303Z 3003/3024 23006KT P6SM BKN150
     FM301000 23008KT 6SM -SHRA OVC040
     FM301200 25010KT P6SM SCT040
     FM301600 26016G24KT P6SM SKC=



000
FTUS41 KBUF 300303 AAA
TAFIAG
TAF AMD
KIAG 300303Z 3003/3024 20006KT P6SM BKN150
     FM300700 24008KT P6SM -SHRA BKN040
     FM301000 26010KT P6SM SCT050
     FM301600 25016G24KT P6SM SKC=



000
FTUS41 KBUF 300303 AAB
TAFBUF
TAF AMD
KBUF 300303Z 3003/3024 20006KT P6SM BKN150
     FM300700 23008KT P6SM -SHRA BKN040
     FM301000 25010KT P6SM SCT050
     FM301600 25018G26KT P6SM SKC=



000
FTUS41 KBUF 300303 AAB
TAFART
TAF AMD
KART 300303Z 3003/3024 VRB03KT P6SM SKC
     FM300500 15003KT 5SM BR SCT250
     FM300800 18006KT P6SM BKN150
     FM301100 21008KT P6SM VCSH BKN040
     FM301300 23010KT 3SM -SHRA BR BKN008
     FM301500 24014G22KT P6SM SCT040
     FM301800 25016G24KT P6SM SKC=



000
FTUS41 KBUF 300303 AAA
TAFJHW
TAF AMD
KJHW 300303Z 3003/3024 25005KT P6SM SCT050
     FM300700 24005KT 6SM -SHRA OVC035
     FM301000 28007KT P6SM BKN040
     FM301400 28014G20KT P6SM SCT040
      AMD LTD TO CLD VIS AND WIND=



000
FTUS41 KBUF 300149 AAA
TAFART
TAF AMD
KART 300149Z 3002/3024 VRB03KT P6SM SKC
     FM300400 VRB03KT 3SM BR SCT250
     FM301100 21008KT P6SM VCSH BKN040
     FM301300 23010KT 3SM -SHRA BR BKN008
     FM301500 24014G22KT P6SM SCT040
     FM301800 25016G24KT P6SM SKC=



000
FTUS41 KBUF 300149 AAA
TAFART
TAF AMD
KART 300149Z 3002/3024 VRB03KT P6SM SKC
     FM300400 VRB03KT 3SM BR SCT250
     FM301100 21008KT P6SM VCSH BKN040
     FM301300 23010KT 3SM -SHRA BR BKN008
     FM301500 24014G22KT P6SM SCT040
     FM301800 25016G24KT P6SM SKC=



000
FTUS41 KBUF 292326
TAFJHW
TAF
KJHW 292326Z 3000/3024 25005KT P6SM SCT050
     FM300700 24005KT 6SM -SHRA BKN035
     FM300900 28007KT P6SM BKN040
     FM301400 28014G20KT P6SM SCT040
      AMD LTD TO CLD VIS AND WIND=



000
FTUS41 KBUF 292326
TAFIAG
TAF
KIAG 292326Z 3000/3024 22008KT P6SM BKN250
     FM300200 20006KT P6SM BKN150
     FM300700 24008KT P6SM VCSH BKN050
     FM300900 26010KT P6SM SCT050
     FM301600 25016G24KT P6SM SKC=



000
FTUS41 KBUF 292326
TAFBUF
TAF
KBUF 292326Z 3000/3024 22008KT P6SM BKN250
     FM300200 20006KT P6SM BKN150
     FM300700 23008KT P6SM VCSH BKN050
     FM301000 25010KT P6SM SCT050
     FM301600 25018G26KT P6SM SKC=



000
FTUS41 KBUF 292326
TAFROC
TAF
KROC 292326Z 3000/3024 VRB05KT P6SM BKN250
     FM300300 21006KT P6SM BKN150
     FM300900 23008KT 6SM -SHRA OVC040
     FM301200 25010KT P6SM SCT040
     FM301600 26016G24KT P6SM SKC=



000
FTUS41 KBUF 292326
TAFART
TAF
KART 292326Z 3000/3024 20005KT P6SM SCT250
     FM301000 21008KT 6SM -SHRA BKN040
     FM301200 23010KT 5SM -SHRA BR SCT008 BKN025
     FM301500 24014G22KT P6SM SCT040
     FM301800 25016G24KT P6SM SKC=



000
FTUS41 KBUF 292108 AAA
TAFBUF
TAF AMD
KBUF 292108Z 2921/3018 23008KT P6SM FEW050 SCT250
     FM300300 19006KT P6SM SCT150
     FM300600 22008KT P6SM VCSH BKN050
     FM301000 25009KT P6SM BKN200
     FM301500 25015G23KT P6SM SCT250=



000
FTUS41 KBUF 292108 AAA
TAFIAG
TAF AMD
KIAG 292108Z 2921/3018 23008KT P6SM FEW050 SCT250
     FM300500 23009KT P6SM BKN070
     FM300600 24009KT P6SM VCSH BKN050
     FM300900 26007KT P6SM SCT070 BKN200
     FM301500 25015G23KT P6SM SCT250=



000
FTUS41 KBUF 292108 AAA
TAFJHW
TAF AMD
KJHW 292108Z 2921/3018 20006KT P6SM SCT050
     FM292200 30005KT P6SM SCT060
     FM300600 24005KT P6SM VCSH BKN035
     FM301000 28007KT P6SM BKN200
     FM301500 28012G18KT P6SM SCT250
      AMD LTD TO CLD VIS AND WIND=



000
FTUS41 KBUF 292108 AAA
TAFART
TAF AMD
KART 292108Z 2921/3018 25009KT P6SM SCT250
     FM300200 17006KT P6SM FEW250
     FM300900 20009KT P6SM VCSH BKN050
     FM301000 21009KT 6SM -SHRA SCT007 BKN050
     FM301400 23011KT P6SM BKN060
     FM301600 24012G18KT P6SM BKN250=



000
FTUS41 KBUF 292108 AAA
TAFROC
TAF AMD
KROC 292108Z 2921/3018 VRB05KT P6SM SCT050 BKN250
     FM300300 21007KT P6SM SCT090
     FM300700 23010KT P6SM VCSH BKN050
     FM301200 25009KT P6SM BKN200
     FM301600 26013G20KT P6SM SCT250=



000
FTUS41 KBUF 292108 AAA
TAFBUF
TAF AMD
KBUF 292108Z 2921/3018 23008KT P6SM FEW050 SCT250
     FM300300 19006KT P6SM SCT150
     FM300600 22008KT P6SM VCSH BKN050
     FM301000 25009KT P6SM BKN200
     FM301500 25015G23KT P6SM SCT250=



000
FTUS41 KBUF 292108 AAA
TAFJHW
TAF AMD
KJHW 292108Z 2921/3018 20006KT P6SM SCT050
     FM292200 30005KT P6SM SCT060
     FM300600 24005KT P6SM VCSH BKN035
     FM301000 28007KT P6SM BKN200
     FM301500 28012G18KT P6SM SCT250
      AMD LTD TO CLD VIS AND WIND=



000
FTUS41 KBUF 292108 AAA
TAFROC
TAF AMD
KROC 292108Z 2921/3018 VRB05KT P6SM SCT050 BKN250
     FM300300 21007KT P6SM SCT090
     FM300700 23010KT P6SM VCSH BKN050
     FM301200 25009KT P6SM BKN200
     FM301600 26013G20KT P6SM SCT250=



000
FTUS41 KBUF 292108 AAA
TAFIAG
TAF AMD
KIAG 292108Z 2921/3018 23008KT P6SM FEW050 SCT250
     FM300500 23009KT P6SM BKN070
     FM300600 24009KT P6SM VCSH BKN050
     FM300900 26007KT P6SM SCT070 BKN200
     FM301500 25015G23KT P6SM SCT250=



000
FTUS41 KBUF 292108 AAA
TAFART
TAF AMD
KART 292108Z 2921/3018 25009KT P6SM SCT250
     FM300200 17006KT P6SM FEW250
     FM300900 20009KT P6SM VCSH BKN050
     FM301000 21009KT 6SM -SHRA SCT007 BKN050
     FM301400 23011KT P6SM BKN060
     FM301600 24012G18KT P6SM BKN250=



    US Dept of Commerce
    National Oceanic and Atmospheric Administration
    National Weather Service
    1325 East West Highway
    Silver Spring, MD 20910
    Page Author: NWS Internet Services Team
Disclaimer
Information Quality
Credits
Glossary
Privacy Policy
Freedom of Information Act (FOIA)
About Us
Career Opportunities